createdAt,value
2022-11-28T00:00:54.871Z,5.76
2022-11-28T00:01:54.962Z,5.81
2022-11-28T00:02:54.973Z,5.76
2022-11-28T00:03:54.907Z,5.82
2022-11-28T00:04:54.905Z,5.94
2022-11-28T00:05:54.915Z,5.89
2022-11-28T00:06:55.038Z,5.90
2022-11-28T00:07:55.042Z,5.79
2022-11-28T00:08:54.936Z,5.79
2022-11-28T00:09:54.947Z,5.82
2022-11-28T00:10:54.956Z,5.81
2022-11-28T00:11:54.971Z,5.89
2022-11-28T00:12:54.970Z,5.82
2022-11-28T00:13:54.990Z,5.79
2022-11-28T00:14:54.988Z,5.91
2022-11-28T00:15:55.024Z,5.89
2022-11-28T00:16:55.007Z,5.86
2022-11-28T00:17:55.019Z,5.90
2022-11-28T00:18:55.052Z,5.79
2022-11-28T00:19:55.036Z,5.83
2022-11-28T00:20:55.038Z,5.81
2022-11-28T00:21:55.054Z,5.89
2022-11-28T00:22:55.172Z,5.89
2022-11-28T00:23:55.071Z,5.89
2022-11-28T00:24:55.083Z,5.89
2022-11-28T00:25:55.085Z,5.89
2022-11-28T00:26:55.092Z,5.79
2022-11-28T00:27:55.102Z,5.85
2022-11-28T00:28:55.107Z,5.89
2022-11-28T00:29:55.123Z,5.89
2022-11-28T00:30:55.139Z,5.85
2022-11-28T00:31:55.276Z,5.89
2022-11-28T00:32:55.141Z,5.97
2022-11-28T00:33:55.153Z,5.97
2022-11-28T00:34:55.159Z,5.94
2022-11-28T00:35:55.169Z,5.83
2022-11-28T00:36:55.174Z,5.90
2022-11-28T00:37:55.197Z,5.89
2022-11-28T00:38:55.309Z,5.93
2022-11-28T00:39:55.203Z,5.99
2022-11-28T00:40:55.209Z,5.90
2022-11-28T00:41:55.221Z,5.91
2022-11-28T00:42:55.225Z,5.97
2022-11-28T00:43:55.241Z,5.93
2022-11-28T00:44:55.242Z,5.94
2022-11-28T00:45:55.333Z,5.99
2022-11-28T00:46:55.259Z,5.96
2022-11-28T00:47:55.281Z,5.91
2022-11-28T00:48:55.276Z,6.01
2022-11-28T00:49:55.288Z,6.00
2022-11-28T00:50:55.293Z,6.00
2022-11-28T00:51:55.307Z,5.97
2022-11-28T00:52:55.314Z,5.86
2022-11-28T00:53:55.325Z,5.83
2022-11-28T00:54:55.448Z,5.76
2022-11-28T00:55:55.341Z,5.83
2022-11-28T00:56:55.348Z,5.81
2022-11-28T00:57:55.363Z,5.78
2022-11-28T00:58:55.361Z,5.78
2022-11-28T00:59:55.375Z,5.74
2022-11-28T01:00:55.452Z,5.67
2022-11-28T01:01:55.468Z,5.71
2022-11-28T01:02:55.395Z,5.64
2022-11-28T01:03:55.410Z,5.64
2022-11-28T01:04:55.411Z,5.63
2022-11-28T01:05:55.427Z,5.64
2022-11-28T01:06:55.428Z,5.67
2022-11-28T01:07:55.527Z,5.58
2022-11-28T01:08:55.464Z,5.58
2022-11-28T01:09:55.458Z,5.58
2022-11-28T01:10:55.576Z,5.64
2022-11-28T01:11:55.476Z,5.63
2022-11-28T01:12:55.478Z,5.60
2022-11-28T01:13:55.493Z,5.71
2022-11-28T01:14:55.497Z,5.60
2022-11-28T01:15:55.595Z,5.63
2022-11-28T01:16:55.511Z,5.58
2022-11-28T01:17:55.524Z,5.67
2022-11-28T01:18:55.538Z,5.63
2022-11-28T01:19:55.541Z,5.57
2022-11-28T01:20:55.547Z,5.54
2022-11-28T01:21:55.572Z,5.53
2022-11-28T01:22:55.563Z,5.51
2022-11-28T01:23:55.582Z,5.49
2022-11-28T01:24:55.582Z,5.51
2022-11-28T01:25:55.592Z,5.46
2022-11-28T01:26:55.713Z,5.46
2022-11-28T01:27:55.609Z,5.46
2022-11-28T01:28:55.614Z,5.49
2022-11-28T01:29:55.627Z,5.40
2022-11-28T01:30:55.628Z,5.43
2022-11-28T01:31:55.693Z,5.42
2022-11-28T01:32:55.646Z,5.43
2022-11-28T01:33:55.664Z,5.35
2022-11-28T01:34:55.661Z,5.38
2022-11-28T01:35:55.675Z,5.35
2022-11-28T01:36:55.679Z,5.31
2022-11-28T01:37:55.688Z,5.25
2022-11-28T01:38:55.704Z,5.15
2022-11-28T01:39:55.730Z,5.07
2022-11-28T01:40:55.713Z,5.10
2022-11-28T01:41:55.728Z,5.09
2022-11-28T01:42:55.843Z,5.04
2022-11-28T01:43:55.738Z,5.07
2022-11-28T01:44:55.751Z,5.06
2022-11-28T01:45:55.758Z,5.03
2022-11-28T01:46:55.796Z,5.06
2022-11-28T01:47:55.777Z,5.07
2022-11-28T01:48:55.777Z,5.09
2022-11-28T01:49:55.790Z,5.10
2022-11-28T01:50:55.794Z,5.13
2022-11-28T01:51:55.806Z,5.04
2022-11-28T01:52:55.816Z,5.21
2022-11-28T01:53:55.821Z,5.17
2022-11-28T01:54:55.834Z,5.13
2022-11-28T01:55:55.839Z,5.10
2022-11-28T01:56:55.842Z,5.12
2022-11-28T01:57:55.853Z,5.13
2022-11-28T01:58:55.968Z,5.06
2022-11-28T01:59:55.870Z,5.02
2022-11-28T02:00:55.930Z,5.09
2022-11-28T02:01:55.931Z,4.99
2022-11-28T02:02:55.891Z,5.02
2022-11-28T02:03:55.900Z,4.92
2022-11-28T02:04:55.909Z,4.89
2022-11-28T02:05:55.916Z,4.89
2022-11-28T02:06:55.919Z,4.85
2022-11-28T02:07:56.030Z,4.92
2022-11-28T02:08:55.934Z,4.97
2022-11-28T02:09:55.948Z,4.97
2022-11-28T02:10:55.951Z,4.97
2022-11-28T02:11:55.962Z,4.96
2022-11-28T02:12:55.967Z,4.99
2022-11-28T02:13:55.977Z,4.94
2022-11-28T02:14:56.098Z,5.03
2022-11-28T02:15:56.076Z,5.02
2022-11-28T02:16:56.000Z,4.96
2022-11-28T02:17:56.012Z,4.89
2022-11-28T02:18:56.016Z,5.04
2022-11-28T02:19:56.035Z,4.99
2022-11-28T02:20:56.028Z,5.04
2022-11-28T02:21:56.039Z,5.00
2022-11-28T02:22:56.047Z,5.04
2022-11-28T02:23:56.054Z,5.00
2022-11-28T02:24:56.064Z,5.07
2022-11-28T02:25:56.094Z,5.06
2022-11-28T02:26:56.177Z,5.03
2022-11-28T02:27:56.088Z,5.07
2022-11-28T02:28:56.090Z,5.10
2022-11-28T02:29:56.106Z,5.10
2022-11-28T02:30:56.218Z,5.06
2022-11-28T02:31:56.214Z,5.06
2022-11-28T02:32:56.123Z,5.06
2022-11-28T02:33:56.138Z,5.07
2022-11-28T02:34:56.138Z,5.06
2022-11-28T02:35:56.152Z,4.97
2022-11-28T02:36:56.155Z,4.99
2022-11-28T02:37:56.165Z,4.92
2022-11-28T02:38:56.171Z,4.84
2022-11-28T02:39:56.186Z,4.84
2022-11-28T02:40:56.186Z,4.55
2022-11-28T02:41:56.199Z,4.52
2022-11-28T02:42:56.202Z,4.33
2022-11-28T02:43:58.399Z,4.41
2022-11-28T02:44:56.218Z,4.37
2022-11-28T02:45:56.233Z,4.32
2022-11-28T02:46:56.422Z,4.36
2022-11-28T02:47:56.246Z,4.32
2022-11-28T02:48:56.253Z,4.41
2022-11-28T02:49:56.260Z,4.34
2022-11-28T02:50:56.265Z,4.22
2022-11-28T02:51:56.273Z,4.34
2022-11-28T02:52:56.383Z,4.34
2022-11-28T02:53:56.288Z,4.44
2022-11-28T02:54:56.300Z,4.42
2022-11-28T02:55:56.304Z,4.36
2022-11-28T02:56:56.313Z,4.33
2022-11-28T02:57:56.319Z,4.41
2022-11-28T02:58:56.330Z,4.42
2022-11-28T02:59:56.336Z,4.36
2022-11-28T03:00:56.458Z,4.37
2022-11-28T03:01:56.416Z,4.36
2022-11-28T03:02:56.478Z,4.41
2022-11-28T03:03:56.378Z,4.40
2022-11-28T03:04:56.375Z,4.34
2022-11-28T03:05:56.379Z,4.32
2022-11-28T03:06:56.392Z,4.34
2022-11-28T03:07:56.476Z,4.36
2022-11-28T03:08:56.415Z,4.45
2022-11-28T03:09:56.410Z,4.40
2022-11-28T03:10:56.421Z,4.47
2022-11-28T03:11:56.427Z,4.47
2022-11-28T03:12:56.436Z,4.48
2022-11-28T03:13:56.444Z,4.50
2022-11-28T03:14:56.456Z,4.65
2022-11-28T03:15:56.560Z,4.60
2022-11-28T03:16:56.476Z,4.70
2022-11-28T03:17:56.469Z,4.80
2022-11-28T03:18:56.596Z,4.73
2022-11-28T03:19:56.487Z,4.67
2022-11-28T03:20:56.500Z,4.72
2022-11-28T03:21:56.515Z,4.70
2022-11-28T03:22:56.513Z,4.70
2022-11-28T03:23:56.517Z,4.75
2022-11-28T03:24:56.529Z,4.85
2022-11-28T03:25:56.535Z,4.85
2022-11-28T03:26:56.544Z,4.96
2022-11-28T03:27:56.548Z,5.00
2022-11-28T03:28:56.556Z,4.96
2022-11-28T03:29:56.560Z,4.99
2022-11-28T03:30:56.574Z,4.91
2022-11-28T03:31:56.667Z,4.91
2022-11-28T03:32:56.601Z,4.92
2022-11-28T03:33:56.608Z,5.02
2022-11-28T03:34:56.721Z,5.02
2022-11-28T03:35:56.607Z,5.06
2022-11-28T03:36:56.623Z,5.18
2022-11-28T03:37:56.646Z,5.13
2022-11-28T03:38:56.634Z,5.20
2022-11-28T03:39:56.641Z,5.25
2022-11-28T03:40:56.649Z,5.30
2022-11-28T03:41:56.654Z,5.31
2022-11-28T03:42:56.667Z,5.36
2022-11-28T03:43:56.669Z,5.38
2022-11-28T03:44:56.684Z,5.40
2022-11-28T03:45:56.686Z,5.43
2022-11-28T03:46:56.788Z,5.48
2022-11-28T03:47:56.700Z,5.49
2022-11-28T03:48:56.711Z,5.48
2022-11-28T03:49:56.718Z,5.45
2022-11-28T03:50:56.842Z,5.39
2022-11-28T03:51:56.734Z,5.31
2022-11-28T03:52:56.741Z,5.18
2022-11-28T03:53:56.745Z,5.24
2022-11-28T03:54:56.760Z,5.15
2022-11-28T03:55:56.815Z,5.13
2022-11-28T03:56:56.775Z,5.02
2022-11-28T03:57:56.778Z,4.94
2022-11-28T03:58:56.788Z,4.91
2022-11-28T03:59:56.797Z,4.91
2022-11-28T04:00:56.816Z,4.91
2022-11-28T04:01:56.806Z,4.80
2022-11-28T04:02:57.008Z,4.80
2022-11-28T04:03:56.833Z,4.82
2022-11-28T04:04:56.842Z,4.84
2022-11-28T04:05:56.842Z,4.67
2022-11-28T04:06:56.969Z,4.73
2022-11-28T04:07:56.914Z,4.60
2022-11-28T04:08:56.867Z,4.65
2022-11-28T04:09:56.870Z,4.59
2022-11-28T04:10:56.881Z,4.60
2022-11-28T04:11:56.888Z,4.69
2022-11-28T04:12:56.902Z,4.63
2022-11-28T04:13:56.907Z,4.78
2022-11-28T04:14:56.913Z,4.77
2022-11-28T04:15:56.966Z,4.78
2022-11-28T04:16:56.960Z,4.73
2022-11-28T04:17:56.932Z,4.86
2022-11-28T04:18:56.943Z,4.75
2022-11-28T04:19:56.947Z,4.72
2022-11-28T04:20:56.957Z,4.78
2022-11-28T04:21:56.963Z,4.75
2022-11-28T04:22:57.094Z,4.65
2022-11-28T04:23:56.977Z,4.69
2022-11-28T04:24:56.987Z,4.69
2022-11-28T04:25:56.992Z,4.70
2022-11-28T04:26:57.004Z,4.70
2022-11-28T04:27:57.016Z,4.75
2022-11-28T04:28:57.017Z,4.72
2022-11-28T04:29:57.021Z,4.73
2022-11-28T04:30:57.032Z,4.75
2022-11-28T04:31:57.088Z,4.75
2022-11-28T04:32:57.049Z,4.72
2022-11-28T04:33:57.050Z,4.66
2022-11-28T04:34:57.063Z,4.66
2022-11-28T04:35:57.074Z,4.70
2022-11-28T04:36:57.076Z,4.70
2022-11-28T04:37:57.081Z,4.67
2022-11-28T04:38:57.210Z,4.75
2022-11-28T04:39:57.094Z,4.65
2022-11-28T04:40:57.108Z,4.67
2022-11-28T04:41:57.111Z,4.70
2022-11-28T04:42:57.126Z,4.67
2022-11-28T04:43:57.127Z,4.69
2022-11-28T04:44:57.135Z,4.65
2022-11-28T04:45:57.209Z,4.62
2022-11-28T04:46:57.149Z,4.70
2022-11-28T04:47:57.161Z,4.59
2022-11-28T04:48:57.166Z,4.50
2022-11-28T04:49:57.170Z,4.55
2022-11-28T04:50:57.184Z,4.51
2022-11-28T04:51:57.190Z,4.54
2022-11-28T04:52:57.199Z,4.44
2022-11-28T04:53:57.198Z,4.44
2022-11-28T04:54:57.324Z,4.51
2022-11-28T04:55:57.215Z,4.47
2022-11-28T04:56:57.226Z,4.44
2022-11-28T04:57:57.690Z,4.47
2022-11-28T04:58:57.245Z,4.50
2022-11-28T04:59:57.250Z,4.58
2022-11-28T05:00:57.327Z,4.48
2022-11-28T05:01:57.282Z,4.40
2022-11-28T05:02:57.269Z,4.47
2022-11-28T05:03:57.285Z,4.40
2022-11-28T05:04:57.287Z,4.40
2022-11-28T05:05:57.290Z,4.40
2022-11-28T05:06:57.301Z,4.30
2022-11-28T05:07:57.332Z,4.32
2022-11-28T05:08:57.316Z,4.37
2022-11-28T05:09:57.321Z,4.40
2022-11-28T05:10:57.446Z,4.37
2022-11-28T05:11:57.336Z,4.37
2022-11-28T05:12:57.351Z,4.47
2022-11-28T05:13:57.354Z,4.34
2022-11-28T05:14:57.367Z,4.34
2022-11-28T05:15:57.492Z,4.29
2022-11-28T05:16:57.377Z,4.29
2022-11-28T05:17:57.383Z,4.34
2022-11-28T05:18:57.393Z,4.34
2022-11-28T05:19:57.397Z,4.36
2022-11-28T05:20:57.408Z,4.33
2022-11-28T05:21:57.414Z,4.33
2022-11-28T05:22:57.423Z,4.33
2022-11-28T05:23:57.428Z,4.36
2022-11-28T05:24:57.439Z,4.26
2022-11-28T05:25:57.443Z,4.27
2022-11-28T05:26:57.582Z,4.36
2022-11-28T05:27:57.464Z,4.24
2022-11-28T05:28:57.467Z,4.26
2022-11-28T05:29:57.471Z,4.22
2022-11-28T05:30:57.485Z,4.26
2022-11-28T05:31:57.558Z,4.22
2022-11-28T05:32:57.498Z,4.16
2022-11-28T05:33:57.502Z,4.06
2022-11-28T05:34:57.513Z,4.06
2022-11-28T05:35:57.519Z,3.94
2022-11-28T05:36:57.526Z,3.97
2022-11-28T05:37:57.531Z,4.00
2022-11-28T05:38:57.541Z,3.91
2022-11-28T05:39:57.546Z,3.86
2022-11-28T05:40:57.558Z,3.80
2022-11-28T05:41:57.562Z,3.83
2022-11-28T05:42:57.689Z,3.73
2022-11-28T05:43:57.600Z,3.70
2022-11-28T05:44:57.587Z,3.69
2022-11-28T05:45:57.620Z,3.68
2022-11-28T05:46:57.601Z,3.57
2022-11-28T05:47:57.603Z,3.58
2022-11-28T05:48:57.613Z,3.55
2022-11-28T05:49:57.630Z,3.60
2022-11-28T05:50:57.630Z,3.48
2022-11-28T05:51:57.632Z,3.48
2022-11-28T05:52:57.650Z,3.48
2022-11-28T05:53:57.654Z,3.48
2022-11-28T05:54:57.656Z,3.48
2022-11-28T05:55:57.664Z,3.45
2022-11-28T05:56:57.673Z,3.50
2022-11-28T05:57:57.673Z,3.47
2022-11-28T05:58:57.797Z,3.42
2022-11-28T05:59:57.693Z,3.48
2022-11-28T06:00:57.698Z,3.43
2022-11-28T06:01:57.738Z,3.43
2022-11-28T06:03:01.310Z,3.42
2022-11-28T06:03:57.820Z,3.31
2022-11-28T06:04:57.780Z,3.45
2022-11-28T06:05:57.730Z,3.40
2022-11-28T06:06:57.739Z,3.50
2022-11-28T06:07:57.830Z,3.45
2022-11-28T06:08:57.764Z,3.29
2022-11-28T06:09:57.766Z,3.40
2022-11-28T06:10:57.768Z,3.40
2022-11-28T06:11:57.770Z,3.39
2022-11-28T06:12:57.783Z,3.36
2022-11-28T06:13:57.794Z,3.24
2022-11-28T06:14:57.911Z,3.39
2022-11-28T06:15:57.801Z,3.24
2022-11-28T06:16:57.886Z,3.26
2022-11-28T06:17:57.810Z,3.35
2022-11-28T06:18:57.826Z,3.33
2022-11-28T06:19:57.826Z,3.39
2022-11-28T06:20:57.837Z,3.42
2022-11-28T06:21:57.840Z,3.42
2022-11-28T06:22:57.853Z,3.39
2022-11-28T06:23:57.856Z,3.36
2022-11-28T06:24:57.864Z,3.35
2022-11-28T06:25:57.869Z,3.39
2022-11-28T06:26:57.877Z,3.35
2022-11-28T06:27:57.894Z,3.39
2022-11-28T06:28:57.892Z,3.35
2022-11-28T06:29:57.893Z,3.35
2022-11-28T06:30:58.015Z,3.36
2022-11-28T06:31:58.028Z,3.39
2022-11-28T06:32:57.919Z,3.40
2022-11-28T06:33:57.926Z,3.31
2022-11-28T06:34:57.930Z,3.35
2022-11-28T06:35:57.933Z,3.36
2022-11-28T06:36:57.947Z,3.36
2022-11-28T06:37:57.947Z,3.40
2022-11-28T06:38:57.959Z,3.28
2022-11-28T06:39:57.962Z,3.35
2022-11-28T06:40:57.973Z,3.47
2022-11-28T06:41:58.025Z,3.36
2022-11-28T06:42:57.987Z,3.42
2022-11-28T06:43:57.990Z,3.47
2022-11-28T06:44:57.998Z,3.48
2022-11-28T06:45:58.100Z,3.48
2022-11-28T06:46:58.129Z,3.48
2022-11-28T06:47:58.016Z,3.48
2022-11-28T06:48:58.027Z,3.42
2022-11-28T06:49:58.029Z,3.45
2022-11-28T06:50:58.040Z,3.42
2022-11-28T06:51:58.045Z,3.54
2022-11-28T06:52:58.054Z,3.55
2022-11-28T06:53:58.057Z,3.50
2022-11-28T06:54:58.070Z,3.69
2022-11-28T06:55:58.080Z,3.55
2022-11-28T06:56:58.082Z,3.55
2022-11-28T06:57:58.085Z,3.60
2022-11-28T06:58:58.099Z,3.48
2022-11-28T06:59:58.105Z,3.48
2022-11-28T07:00:58.155Z,3.47
2022-11-28T07:01:59.970Z,3.35
2022-11-28T07:02:58.344Z,3.43
2022-11-28T07:03:58.126Z,3.43
2022-11-28T07:04:58.134Z,3.48
2022-11-28T07:05:58.140Z,3.42
2022-11-28T07:06:58.150Z,3.48
2022-11-28T07:07:58.230Z,3.48
2022-11-28T07:08:58.165Z,3.48
2022-11-28T07:09:58.173Z,3.51
2022-11-28T07:10:58.173Z,3.48
2022-11-28T07:11:58.190Z,3.52
2022-11-28T07:13:02.363Z,3.45
2022-11-28T07:13:58.195Z,3.51
2022-11-28T07:14:58.201Z,3.55
2022-11-28T07:15:58.212Z,3.48
2022-11-28T07:16:58.281Z,3.51
2022-11-28T07:17:58.222Z,3.51
2022-11-28T07:18:58.341Z,3.54
2022-11-28T07:19:58.237Z,3.51
2022-11-28T07:20:58.243Z,3.57
2022-11-28T07:21:58.251Z,3.54
2022-11-28T07:22:58.252Z,3.58
2022-11-28T07:23:58.268Z,3.55
2022-11-28T07:24:58.267Z,3.55
2022-11-28T07:25:58.279Z,3.51
2022-11-28T07:26:58.301Z,3.54
2022-11-28T07:27:58.311Z,3.54
2022-11-28T07:28:58.396Z,3.57
2022-11-28T07:29:58.327Z,3.57
2022-11-28T07:30:58.307Z,3.52
2022-11-28T07:31:58.386Z,3.43
2022-11-28T07:32:58.322Z,3.40
2022-11-28T07:33:58.348Z,3.45
2022-11-28T07:34:58.450Z,3.31
2022-11-28T07:35:58.348Z,3.33
2022-11-28T07:36:58.350Z,3.39
2022-11-28T07:37:58.358Z,3.40
2022-11-28T07:38:58.363Z,3.36
2022-11-28T07:39:58.376Z,3.39
2022-11-28T07:40:58.376Z,3.50
2022-11-28T07:41:58.387Z,3.48
2022-11-28T07:42:58.394Z,3.48
2022-11-28T07:43:58.414Z,3.42
2022-11-28T07:44:58.410Z,3.55
2022-11-28T07:46:01.360Z,3.54
2022-11-28T07:46:58.493Z,3.52
2022-11-28T07:47:58.426Z,3.42
2022-11-28T07:48:58.429Z,3.45
2022-11-28T07:49:58.452Z,3.48
2022-11-28T07:50:58.476Z,3.50
2022-11-28T07:51:58.454Z,3.48
2022-11-28T07:53:02.817Z,3.42
2022-11-28T07:53:58.472Z,3.48
2022-11-28T07:54:58.470Z,3.50
2022-11-28T07:55:58.481Z,3.55
2022-11-28T07:57:12.993Z,3.45
2022-11-28T07:57:58.506Z,3.52
2022-11-28T07:59:02.022Z,3.55
2022-11-28T07:59:58.515Z,3.52
2022-11-28T08:00:58.509Z,3.52
2022-11-28T08:01:58.595Z,3.58
2022-11-28T08:02:58.531Z,3.57
2022-11-28T08:03:58.578Z,3.52
2022-11-28T08:04:58.573Z,3.58
2022-11-28T08:06:01.556Z,3.66
2022-11-28T08:06:58.570Z,3.65
2022-11-28T08:07:58.633Z,3.68
2022-11-28T08:08:58.563Z,3.72
2022-11-28T08:09:58.577Z,3.68
2022-11-28T08:10:58.580Z,3.65
2022-11-28T08:11:58.597Z,3.78
2022-11-28T08:12:58.591Z,3.79
2022-11-28T08:13:59.309Z,3.80
2022-11-28T08:14:58.605Z,3.87
2022-11-28T08:15:58.614Z,3.86
2022-11-28T08:16:58.666Z,3.93
2022-11-28T08:17:58.627Z,3.91
2022-11-28T08:18:58.632Z,3.98
2022-11-28T08:19:58.643Z,3.97
2022-11-28T08:20:58.646Z,3.91
2022-11-28T08:21:58.658Z,4.06
2022-11-28T08:22:58.678Z,4.05
2022-11-28T08:23:58.671Z,4.08
2022-11-28T08:24:58.676Z,4.14
2022-11-28T08:25:58.684Z,4.11
2022-11-28T08:26:58.685Z,4.18
2022-11-28T08:27:58.697Z,4.18
2022-11-28T08:28:58.703Z,4.27
2022-11-28T08:29:58.711Z,4.22
2022-11-28T08:30:58.770Z,4.26
2022-11-28T08:31:58.727Z,4.40
2022-11-28T08:32:58.728Z,4.34
2022-11-28T08:33:58.740Z,4.33
2022-11-28T08:34:58.748Z,4.32
2022-11-28T08:35:58.758Z,4.32
2022-11-28T08:36:58.758Z,4.34
2022-11-28T08:38:01.813Z,4.34
2022-11-28T08:39:23.857Z,4.41
2022-11-28T08:39:58.784Z,4.45
2022-11-28T08:40:58.795Z,4.47
2022-11-28T08:41:58.829Z,4.51
2022-11-28T08:42:58.807Z,4.44
2022-11-28T08:43:58.812Z,4.58
2022-11-28T08:44:58.823Z,4.59
2022-11-28T08:45:58.863Z,4.66
2022-11-28T08:46:58.868Z,4.67
2022-11-28T08:47:58.871Z,4.75
2022-11-28T08:48:58.843Z,4.67
2022-11-28T08:49:58.853Z,4.70
2022-11-28T08:50:58.874Z,4.65
2022-11-28T08:51:58.878Z,4.65
2022-11-28T08:53:01.751Z,4.70
2022-11-28T08:53:59.735Z,4.70
2022-11-28T08:54:58.933Z,4.72
2022-11-28T08:55:58.905Z,4.72
2022-11-28T08:56:58.905Z,4.72
2022-11-28T08:57:58.918Z,4.72
2022-11-28T08:58:58.916Z,4.59
2022-11-28T08:59:58.931Z,4.40
2022-11-28T09:00:58.998Z,4.42
2022-11-28T09:01:58.953Z,4.37
2022-11-28T09:02:58.968Z,4.41
2022-11-28T09:03:59.016Z,4.48
2022-11-28T09:04:58.966Z,4.37
2022-11-28T09:05:58.976Z,4.36
2022-11-28T09:06:58.981Z,4.41
2022-11-28T09:07:59.042Z,4.40
2022-11-28T09:08:58.996Z,4.42
2022-11-28T09:09:59.004Z,4.37
2022-11-28T09:10:59.029Z,4.45
2022-11-28T09:11:59.022Z,4.48
2022-11-28T09:12:59.021Z,4.45
2022-11-28T09:13:59.032Z,4.47
2022-11-28T09:14:59.038Z,4.54
2022-11-28T09:15:59.060Z,4.52
2022-11-28T09:16:59.184Z,4.60
2022-11-28T09:17:59.067Z,4.45
2022-11-28T09:18:59.069Z,4.34
2022-11-28T09:19:59.080Z,4.34
2022-11-28T09:20:59.092Z,4.45
2022-11-28T09:21:59.093Z,4.51
2022-11-28T09:22:59.097Z,4.48
2022-11-28T09:23:59.115Z,4.55
2022-11-28T09:24:59.121Z,4.58
2022-11-28T09:25:59.129Z,4.67
2022-11-28T09:26:59.150Z,4.70
2022-11-28T09:27:59.140Z,4.66
2022-11-28T09:28:59.140Z,4.85
2022-11-28T09:29:59.152Z,4.72
2022-11-28T09:30:59.179Z,4.89
2022-11-28T09:31:59.169Z,4.89
2022-11-28T09:32:59.174Z,4.92
2022-11-28T09:33:59.183Z,4.82
2022-11-28T09:34:59.195Z,4.78
2022-11-28T09:35:59.201Z,4.85
2022-11-28T09:37:04.662Z,4.82
2022-11-28T09:37:59.213Z,4.86
2022-11-28T09:38:59.219Z,4.85
2022-11-28T09:40:12.704Z,4.85
2022-11-28T09:40:59.232Z,4.89
2022-11-28T09:41:59.245Z,4.91
2022-11-28T09:42:59.266Z,4.97
2022-11-28T09:43:59.258Z,4.96
2022-11-28T09:44:59.262Z,5.00
2022-11-28T09:45:59.316Z,5.04
2022-11-28T09:46:59.279Z,4.94
2022-11-28T09:47:59.291Z,5.04
2022-11-28T09:48:59.294Z,4.92
2022-11-28T09:49:59.318Z,4.84
2022-11-28T09:50:59.308Z,4.85
2022-11-28T09:51:59.319Z,4.67
2022-11-28T09:52:59.388Z,4.69
2022-11-28T09:53:59.335Z,4.73
2022-11-28T09:54:59.349Z,4.78
2022-11-28T09:55:59.351Z,4.82
2022-11-28T09:56:59.352Z,4.85
2022-11-28T09:57:59.365Z,4.97
2022-11-28T09:58:59.389Z,4.88
2022-11-28T09:59:59.481Z,4.97
2022-11-28T10:00:59.386Z,5.03
2022-11-28T10:01:59.494Z,4.99
2022-11-28T10:02:59.401Z,4.99
2022-11-28T10:03:59.579Z,5.03
2022-11-28T10:04:59.466Z,5.04
2022-11-28T10:05:59.427Z,4.91
2022-11-28T10:06:59.507Z,4.84
2022-11-28T10:07:59.541Z,4.70
2022-11-28T10:08:59.446Z,4.63
2022-11-28T10:09:59.476Z,4.72
2022-11-28T10:10:59.460Z,4.69
2022-11-28T10:11:59.500Z,4.72
2022-11-28T10:12:59.581Z,4.80
2022-11-28T10:14:08.111Z,4.82
2022-11-28T10:14:59.508Z,4.80
2022-11-28T10:15:59.506Z,4.86
2022-11-28T10:16:59.561Z,4.85
2022-11-28T10:17:59.515Z,4.94
2022-11-28T10:18:59.521Z,5.03
2022-11-28T10:19:59.721Z,5.07
2022-11-28T10:20:59.538Z,5.10
2022-11-28T10:21:59.696Z,5.07
2022-11-28T10:22:59.550Z,5.10
2022-11-28T10:23:59.564Z,5.09
2022-11-28T10:24:59.565Z,5.22
2022-11-28T10:25:59.576Z,5.22
2022-11-28T10:26:59.580Z,5.21
2022-11-28T10:27:59.608Z,5.25
2022-11-28T10:28:59.652Z,5.21
2022-11-28T10:29:59.607Z,5.22
2022-11-28T10:30:59.709Z,5.22
2022-11-28T10:31:59.623Z,5.20
2022-11-28T10:32:59.629Z,5.15
2022-11-28T10:33:59.636Z,5.09
2022-11-28T10:34:59.644Z,5.15
2022-11-28T10:35:59.657Z,5.15
2022-11-28T10:36:59.657Z,5.18
2022-11-28T10:37:59.669Z,5.24
2022-11-28T10:38:59.673Z,5.20
2022-11-28T10:39:59.686Z,5.06
2022-11-28T10:40:59.691Z,5.09
2022-11-28T10:41:59.700Z,5.00
2022-11-28T10:42:59.705Z,4.99
2022-11-28T10:43:59.716Z,4.96
2022-11-28T10:44:59.719Z,4.84
2022-11-28T10:45:59.795Z,4.94
2022-11-28T10:46:59.760Z,4.94
2022-11-28T10:48:07.564Z,4.89
2022-11-28T10:48:59.748Z,4.94
2022-11-28T10:49:59.764Z,5.03
2022-11-28T10:50:59.766Z,5.06
2022-11-28T10:51:59.777Z,5.09
2022-11-28T10:52:59.779Z,5.07
2022-11-28T10:53:59.793Z,5.02
2022-11-28T10:54:59.798Z,4.72
2022-11-28T10:55:59.807Z,4.82
2022-11-28T10:56:59.811Z,5.02
2022-11-28T10:57:59.825Z,5.02
2022-11-28T10:58:59.829Z,5.09
2022-11-28T10:59:59.838Z,5.28
2022-11-28T11:00:59.897Z,5.15
2022-11-28T11:01:59.870Z,5.13
2022-11-28T11:02:59.899Z,5.15
2022-11-28T11:03:59.878Z,5.10
2022-11-28T11:04:59.939Z,5.06
2022-11-28T11:05:59.884Z,5.15
2022-11-28T11:07:11.260Z,5.22
2022-11-28T11:08:00.018Z,5.21
2022-11-28T11:08:59.902Z,5.35
2022-11-28T11:09:59.916Z,5.36
2022-11-28T11:10:59.918Z,5.30
2022-11-28T11:11:59.931Z,5.13
2022-11-28T11:12:59.935Z,5.17
2022-11-28T11:13:59.943Z,5.22
2022-11-28T11:14:59.951Z,5.28
2022-11-28T11:16:00.083Z,5.22
2022-11-28T11:16:59.963Z,5.02
2022-11-28T11:17:59.976Z,5.00
2022-11-28T11:19:00.007Z,5.06
2022-11-28T11:19:59.989Z,5.03
2022-11-28T11:20:59.996Z,5.07
2022-11-28T11:22:00.022Z,5.07
2022-11-28T11:23:00.011Z,5.15
2022-11-28T11:24:00.026Z,5.25
2022-11-28T11:25:00.028Z,5.36
2022-11-28T11:26:00.033Z,5.04
2022-11-28T11:27:00.077Z,4.99
2022-11-28T11:28:00.048Z,4.92
2022-11-28T11:29:00.061Z,4.86
2022-11-28T11:30:00.073Z,5.07
2022-11-28T11:31:00.194Z,5.17
2022-11-28T11:32:00.079Z,5.10
2022-11-28T11:33:00.094Z,5.02
2022-11-28T11:34:00.099Z,4.96
2022-11-28T11:35:00.132Z,4.92
2022-11-28T11:36:00.112Z,4.82
2022-11-28T11:37:00.125Z,4.86
2022-11-28T11:38:00.124Z,4.85
2022-11-28T11:39:00.139Z,4.97
2022-11-28T11:40:00.150Z,5.15
2022-11-28T11:41:00.160Z,5.22
2022-11-28T11:42:00.163Z,5.30
2022-11-28T11:43:00.240Z,5.46
2022-11-28T11:44:00.174Z,5.54
2022-11-28T11:45:00.186Z,5.35
2022-11-28T11:46:00.255Z,5.24
2022-11-28T11:47:00.204Z,5.10
2022-11-28T11:48:00.211Z,5.03
2022-11-28T11:49:00.213Z,5.12
2022-11-28T11:50:00.219Z,5.15
2022-11-28T11:51:00.269Z,5.21
2022-11-28T11:52:00.263Z,5.21
2022-11-28T11:53:00.249Z,5.25
2022-11-28T11:54:00.252Z,5.39
2022-11-28T11:55:00.273Z,5.36
2022-11-28T11:56:00.268Z,5.45
2022-11-28T11:57:30.711Z,5.27
2022-11-28T11:58:05.257Z,5.27
2022-11-28T11:59:00.315Z,5.18
2022-11-28T12:00:00.301Z,5.22
2022-11-28T12:01:00.310Z,5.27
2022-11-28T12:02:00.316Z,5.28
2022-11-28T12:03:00.465Z,5.31
2022-11-28T12:04:08.390Z,5.43
2022-11-28T12:05:00.540Z,5.40
2022-11-28T12:06:15.302Z,5.54
2022-11-28T12:07:00.383Z,5.49
2022-11-28T12:08:00.440Z,5.53
2022-11-28T12:09:00.373Z,5.63
2022-11-28T12:10:04.367Z,5.60
2022-11-28T12:11:00.396Z,5.64
2022-11-28T12:12:00.394Z,5.65
2022-11-28T12:13:00.404Z,5.64
2022-11-28T12:14:00.409Z,5.57
2022-11-28T12:15:00.422Z,5.51
2022-11-28T12:16:00.532Z,5.46
2022-11-28T12:17:00.441Z,5.40
2022-11-28T12:18:00.451Z,5.36
2022-11-28T12:19:00.452Z,5.42
2022-11-28T12:20:00.459Z,5.42
2022-11-28T12:21:00.482Z,5.36
2022-11-28T12:22:00.479Z,5.31
2022-11-28T12:23:00.603Z,5.36
2022-11-28T12:24:00.497Z,5.36
2022-11-28T12:25:00.501Z,5.42
2022-11-28T12:26:00.503Z,5.38
2022-11-28T12:27:00.517Z,5.51
2022-11-28T12:28:00.574Z,5.46
2022-11-28T12:29:00.534Z,5.53
2022-11-28T12:30:00.546Z,5.51
2022-11-28T12:31:00.594Z,5.74
2022-11-28T12:32:00.554Z,5.63
2022-11-28T12:33:00.561Z,5.61
2022-11-28T12:34:00.581Z,5.76
2022-11-28T12:35:00.581Z,5.71
2022-11-28T12:36:03.252Z,5.58
2022-11-28T12:37:00.611Z,5.56
2022-11-28T12:38:10.742Z,5.49
2022-11-28T12:39:00.637Z,5.46
2022-11-28T12:40:00.617Z,5.49
2022-11-28T12:41:00.628Z,5.35
2022-11-28T12:42:00.632Z,5.40
2022-11-28T12:43:00.642Z,5.40
2022-11-28T12:44:00.648Z,5.38
2022-11-28T12:45:00.658Z,5.40
2022-11-28T12:46:00.811Z,5.48
2022-11-28T12:47:00.677Z,5.45
2022-11-28T12:48:00.680Z,5.49
2022-11-28T12:49:00.698Z,5.51
2022-11-28T12:50:00.696Z,5.56
2022-11-28T12:51:00.706Z,5.51
2022-11-28T12:52:00.714Z,5.53
2022-11-28T12:53:00.725Z,5.51
2022-11-28T12:54:00.727Z,5.56
2022-11-28T12:55:00.773Z,5.51
2022-11-28T12:56:00.749Z,5.60
2022-11-28T12:57:00.772Z,5.71
2022-11-28T12:58:06.549Z,5.68
2022-11-28T12:59:00.786Z,5.63
2022-11-28T13:00:06.800Z,5.57
2022-11-28T13:01:00.785Z,5.65
2022-11-28T13:02:03.019Z,5.51
2022-11-28T13:03:00.895Z,5.58
2022-11-28T13:04:00.809Z,5.35
2022-11-28T13:05:00.828Z,5.35
2022-11-28T13:06:00.824Z,5.27
2022-11-28T13:07:00.833Z,5.15
2022-11-28T13:08:01.009Z,5.28
2022-11-28T13:09:00.852Z,5.22
2022-11-28T13:10:00.855Z,5.30
2022-11-28T13:11:00.889Z,5.43
2022-11-28T13:12:00.873Z,5.38
2022-11-28T13:13:00.884Z,5.51
2022-11-28T13:14:00.886Z,5.61
2022-11-28T13:15:00.916Z,5.57
2022-11-28T13:16:00.943Z,5.58
2022-11-28T13:17:00.914Z,5.30
2022-11-28T13:18:00.955Z,5.25
2022-11-28T13:19:00.946Z,5.24